Time;durP1;ratioP1;P1;durP2;ratioP2;P2;SDS_P1;SDS_P2;PMS_P1;PMS_P2;Temp;Humidity;BMP_temperature;BMP_pressure;BME280_temperature;BME280_humidity;BME280_pressure;Samples;Min_cycle;Max_cycle;Signal;HPM_P1;HPM_P2
2023/10/10 00:01:21;;;;;;;37.28;16.92;;;;;;;;;;6222040;28;1204769;-53
2023/10/10 00:04:23;;;;;;;39.63;17.45;;;;;;;;;;6264102;28;20632;-53
2023/10/10 00:07:27;;;;;;;40.65;18.40;;;;;;;;;;6266192;28;20476;-54
2023/10/10 00:10:27;;;;;;;35.17;16.10;;;;;;;;;;6266551;28;20403;-53
2023/10/10 00:13:29;;;;;;;47.03;17.30;;;;;;;;;;6265761;28;20049;-54
2023/10/10 00:16:37;;;;;;;37.50;16.85;;;;;;;;;;6266184;28;20053;-53
2023/10/10 00:19:45;;;;;;;37.60;17.10;;;;;;;;;;6264586;28;20531;-56
2023/10/10 00:22:47;;;;;;;37.58;14.43;;;;;;;;;;6267029;28;20067;-52
2023/10/10 00:25:50;;;;;;;41.33;17.30;;;;;;;;;;6265728;28;20051;-52
2023/10/10 00:28:57;;;;;;;37.70;16.45;;;;;;;;;;6279629;28;20041;-54
2023/10/10 00:31:58;;;;;;;41.60;17.55;;;;;;;;;;6265034;28;20045;-51
2023/10/10 00:34:59;;;;;;;43.88;18.42;;;;;;;;;;6265770;28;20053;-53
2023/10/10 00:38:03;;;;;;;40.67;17.70;;;;;;;;;;6265514;28;20045;-53
2023/10/10 00:41:07;;;;;;;33.75;15.73;;;;;;;;;;6264204;28;20053;-53
2023/10/10 00:44:12;;;;;;;42.53;17.77;;;;;;;;;;6262573;28;20069;-55
2023/10/10 00:47:26;;;;;;;41.78;19.27;;;;;;;;;;6264536;28;20187;-53
2023/10/10 00:50:27;;;;;;;46.90;20.23;;;;;;;;;;6265773;28;20079;-54
2023/10/10 00:53:28;;;;;;;42.93;19.40;;;;;;;;;;6265819;28;20397;-52
2023/10/10 00:56:29;;;;;;;49.03;18.00;;;;;;;;;;6265101;28;20411;-54
2023/10/10 00:59:35;;;;;;;51.95;20.75;;;;;;;;;;6266209;28;20048;-54
2023/10/10 01:02:37;;;;;;;48.15;20.58;;;;;;;;;;6265383;28;20401;-53
2023/10/10 01:05:42;;;;;;;;;;;;;;;;;;6263655;28;20136;-55
2023/10/10 01:08:51;;;;;;;51.67;19.52;;;;;;;;;;6262519;28;19970;-55
2023/10/10 01:11:51;;;;;;;55.88;21.33;;;;;;;;;;6263129;28;20500;-55
2023/10/10 01:14:54;;;;;;;54.70;21.08;;;;;;;;;;6264356;28;20091;-50
2023/10/10 01:17:56;;;;;;;47.70;21.27;;;;;;;;;;6264455;28;20049;-51
2023/10/10 01:21:02;;;;;;;53.72;21.08;;;;;;;;;;6264810;28;20037;-53
2023/10/10 01:24:06;;;;;;;49.28;19.52;;;;;;;;;;6265565;28;20135;-50
2023/10/10 01:27:21;;;;;;;53.22;21.77;;;;;;;;;;6264706;28;20049;-52
2023/10/10 01:30:43;;;;;;;58.40;23.45;;;;;;;;;;6264206;28;20045;-51
2023/10/10 01:33:42;;;;;;;54.58;21.98;;;;;;;;;;6264426;28;20037;-54
2023/10/10 01:36:42;;;;;;;53.17;23.25;;;;;;;;;;6279973;28;20060;-51
2023/10/10 01:39:54;;;;;;;56.10;23.17;;;;;;;;;;6260457;28;20049;-53
2023/10/10 01:42:58;;;;;;;54.17;21.83;;;;;;;;;;6259028;28;20056;-52
2023/10/10 01:46:08;;;;;;;50.75;20.17;;;;;;;;;;6258598;28;20045;-53
2023/10/10 01:49:25;;;;;;;56.30;23.05;;;;;;;;;;6264407;28;20041;-54
2023/10/10 01:52:27;;;;;;;54.80;23.05;;;;;;;;;;6263520;28;20109;-54
2023/10/10 01:55:27;;;;;;;52.22;22.52;;;;;;;;;;6262528;28;20071;-51
2023/10/10 01:58:28;;;;;;;49.53;21.40;;;;;;;;;;6264278;28;20049;-53
2023/10/10 02:01:29;;;;;;;54.90;21.85;;;;;;;;;;6263140;28;20064;-51
2023/10/10 02:04:34;;;;;;;56.97;21.38;;;;;;;;;;6263266;28;20375;-54
2023/10/10 02:07:35;;;;;;;49.97;18.92;;;;;;;;;;6264252;28;20412;-53
2023/10/10 02:10:36;;;;;;;58.58;22.52;;;;;;;;;;6264147;28;20052;-51
2023/10/10 02:13:39;;;;;;;51.83;21.15;;;;;;;;;;6263587;28;20146;-51
2023/10/10 02:16:40;;;;;;;56.10;23.10;;;;;;;;;;6264159;28;20045;-53
2023/10/10 02:19:41;;;;;;;60.45;22.92;;;;;;;;;;6264018;28;20124;-53
2023/10/10 02:22:47;;;;;;;55.33;21.42;;;;;;;;;;6263373;28;20048;-51
2023/10/10 02:25:48;;;;;;;53.33;22.05;;;;;;;;;;6263206;28;20044;-52
2023/10/10 02:28:52;;;;;;;51.45;20.42;;;;;;;;;;6265376;28;20055;-51
2023/10/10 02:32:13;;;;;;;56.35;21.10;;;;;;;;;;6261506;28;20045;-52
2023/10/10 02:35:26;;;;;;;55.90;22.25;;;;;;;;;;6240460;28;20049;-54
2023/10/10 02:38:31;;;;;;;59.47;23.67;;;;;;;;;;6261708;28;20407;-55
2023/10/10 02:41:38;;;;;;;64.22;26.15;;;;;;;;;;6260567;28;20060;-56
2023/10/10 02:44:46;;;;;;;82.53;33.70;;;;;;;;;;6253063;28;20044;-54
2023/10/10 02:47:52;;;;;;;62.50;26.77;;;;;;;;;;6263539;28;20571;-53
2023/10/10 02:50:53;;;;;;;79.00;33.63;;;;;;;;;;6263761;28;20107;-54
2023/10/10 02:53:54;;;;;;;77.57;31.90;;;;;;;;;;6264252;28;20056;-55
2023/10/10 02:56:57;;;;;;;72.40;31.27;;;;;;;;;;6266106;28;20090;-54
2023/10/10 03:00:15;;;;;;;80.78;32.08;;;;;;;;;;6265486;28;20041;-53
2023/10/10 03:03:18;;;;;;;74.75;29.58;;;;;;;;;;6265988;28;20427;-55
2023/10/10 03:06:28;;;;;;;93.07;30.90;;;;;;;;;;6267744;28;20041;-54
2023/10/10 03:09:38;;;;;;;107.50;35.28;;;;;;;;;;6268434;28;20060;-55
2023/10/10 03:12:41;;;;;;;86.20;28.52;;;;;;;;;;6267472;28;20053;-52
2023/10/10 03:15:52;;;;;;;;;;;;;;;;;;6268157;28;20083;-54
2023/10/10 03:29:03;;;;;;;60.00;22.48;;;;;;;;;;6263485;28;20107;-53
2023/10/10 03:35:34;;;;;;;67.15;22.92;;;;;;;;;;6267065;28;20048;-53
2023/10/10 05:24:42;;;;;;;41.22;19.73;;;;;;;;;;6255059;28;20152;-56
2023/10/10 05:27:43;;;;;;;40.13;16.33;;;;;;;;;;6258864;28;20381;-55
2023/10/10 05:30:45;;;;;;;39.85;18.42;;;;;;;;;;6260899;28;20529;-55
2023/10/10 05:33:47;;;;;;;40.28;16.92;;;;;;;;;;6262770;28;20834;-54
2023/10/10 05:36:48;;;;;;;37.00;16.98;;;;;;;;;;6257212;28;20029;-54
2023/10/10 05:39:49;;;;;;;43.30;17.85;;;;;;;;;;6258962;28;20091;-55
2023/10/10 05:42:53;;;;;;;41.30;17.05;;;;;;;;;;6259798;28;20416;-55
2023/10/10 05:45:54;;;;;;;35.30;16.73;;;;;;;;;;6261284;28;20053;-55
2023/10/10 05:48:56;;;;;;;37.85;16.77;;;;;;;;;;6255707;28;20094;-54
2023/10/10 05:51:56;;;;;;;37.93;16.70;;;;;;;;;;6264085;28;20098;-56
2023/10/10 05:54:57;;;;;;;32.78;13.98;;;;;;;;;;6253220;28;20049;-55
2023/10/10 05:57:57;;;;;;;36.88;14.77;;;;;;;;;;6241292;28;20038;-51
2023/10/10 06:00:59;;;;;;;32.70;14.30;;;;;;;;;;6242229;28;20092;-53
2023/10/10 06:03:59;;;;;;;33.40;13.65;;;;;;;;;;6241989;28;20060;-53
2023/10/10 06:07:00;;;;;;;37.42;15.20;;;;;;;;;;6241002;28;20050;-54
2023/10/10 06:10:02;;;;;;;43.28;20.02;;;;;;;;;;6241887;28;20057;-53
2023/10/10 06:13:06;;;;;;;39.10;16.67;;;;;;;;;;6242963;28;20041;-54
2023/10/10 06:16:09;;;;;;;47.63;20.92;;;;;;;;;;6241762;28;20409;-53
2023/10/10 06:19:17;;;;;;;47.15;20.77;;;;;;;;;;6242320;28;20136;-53
2023/10/10 06:22:19;;;;;;;39.72;17.00;;;;;;;;;;6241625;28;20091;-53
2023/10/10 06:25:19;;;;;;;48.10;21.15;;;;;;;;;;6241985;28;20049;-53
2023/10/10 06:28:23;;;;;;;48.65;20.90;;;;;;;;;;6241585;28;20569;-51
2023/10/10 06:31:33;;;;;;;53.95;23.48;;;;;;;;;;6248109;28;20554;-51
2023/10/10 06:34:36;;;;;;;36.92;15.02;;;;;;;;;;6247898;28;20053;-51
2023/10/10 06:37:37;;;;;;;47.40;20.00;;;;;;;;;;6246143;28;20479;-51
2023/10/10 06:40:52;;;;;;;40.80;16.35;;;;;;;;;;6246440;28;20045;-53
2023/10/10 06:43:54;;;;;;;42.42;16.25;;;;;;;;;;6246641;28;20136;-53
2023/10/10 06:46:55;;;;;;;42.60;17.65;;;;;;;;;;6246265;28;20456;-52
2023/10/10 06:49:56;;;;;;;39.33;15.50;;;;;;;;;;6244242;28;20518;-51
2023/10/10 06:52:57;;;;;;;41.28;16.52;;;;;;;;;;6245603;28;20106;-52
2023/10/10 06:56:14;;;;;;;46.95;17.30;;;;;;;;;;6246150;28;20059;-51
2023/10/10 06:59:20;;;;;;;46.30;18.75;;;;;;;;;;6243717;28;20550;-52
2023/10/10 07:02:21;;;;;;;38.95;14.48;;;;;;;;;;6245684;28;20076;-54
2023/10/10 07:05:26;;;;;;;39.13;15.55;;;;;;;;;;6245226;28;20052;-52
2023/10/10 07:08:27;;;;;;;44.15;18.20;;;;;;;;;;6245037;28;20054;-52
2023/10/10 07:11:27;;;;;;;38.67;15.30;;;;;;;;;;6246078;28;20413;-50
2023/10/10 07:14:28;;;;;;;37.85;14.98;;;;;;;;;;6245837;28;20781;-51
2023/10/10 07:17:28;;;;;;;30.70;14.35;;;;;;;;;;6243826;28;20044;-52
2023/10/10 07:24:05;;;;;;;38.30;15.13;;;;;;;;;;6244877;28;20060;-54
2023/10/10 07:27:11;;;;;;;42.85;16.10;;;;;;;;;;6244894;28;20533;-50
2023/10/10 07:30:18;;;;;;;34.47;15.30;;;;;;;;;;6244530;28;20419;-52
2023/10/10 07:33:22;;;;;;;39.40;16.02;;;;;;;;;;6243734;28;20053;-52
2023/10/10 07:36:27;;;;;;;38.15;15.82;;;;;;;;;;6244865;28;20504;-52
2023/10/10 07:39:32;;;;;;;38.05;16.10;;;;;;;;;;6245997;28;20037;-49
2023/10/10 07:42:35;;;;;;;37.67;15.18;;;;;;;;;;6244092;28;20045;-50
2023/10/10 07:48:46;;;;;;;37.85;16.17;;;;;;;;;;6246213;28;20072;-55
2023/10/10 07:51:49;;;;;;;35.05;14.93;;;;;;;;;;6244851;28;20049;-54
2023/10/10 07:55:04;;;;;;;35.35;14.77;;;;;;;;;;6244554;28;20041;-54
2023/10/10 07:58:06;;;;;;;36.00;15.32;;;;;;;;;;6244893;28;20133;-55
2023/10/10 08:01:09;;;;;;;37.38;16.02;;;;;;;;;;6244771;28;20049;-50
2023/10/10 08:04:14;;;;;;;36.30;16.02;;;;;;;;;;6244200;28;20045;-51
2023/10/10 08:07:18;;;;;;;36.28;15.80;;;;;;;;;;6243787;28;20488;-52
2023/10/10 08:13:51;;;;;;;48.85;19.08;;;;;;;;;;6250817;28;20103;-54
2023/10/10 08:16:59;;;;;;;40.42;17.25;;;;;;;;;;6244213;28;20045;-55
2023/10/10 08:20:31;;;;;;;46.15;18.02;;;;;;;;;;6243535;28;20046;-53
2023/10/10 08:23:24;;;;;;;46.70;19.10;;;;;;;;;;6244581;28;20055;-53
2023/10/10 08:26:26;;;;;;;40.08;17.85;;;;;;;;;;6244108;28;20125;-51
2023/10/10 08:29:27;;;;;;;47.42;18.88;;;;;;;;;;6243492;28;20051;-53
2023/10/10 08:32:30;;;;;;;46.40;19.92;;;;;;;;;;6242967;28;20320;-51
2023/10/10 08:35:38;;;;;;;42.42;18.35;;;;;;;;;;6243948;28;20059;-51
2023/10/10 08:38:42;;;;;;;43.63;18.15;;;;;;;;;;6243623;28;20053;-54
2023/10/10 08:41:44;;;;;;;44.35;20.30;;;;;;;;;;6244239;28;20451;-53
2023/10/10 08:44:55;;;;;;;47.30;19.80;;;;;;;;;;6242816;28;20072;-51
2023/10/10 08:48:00;;;;;;;45.72;19.90;;;;;;;;;;6243682;28;20714;-55
2023/10/10 08:51:05;;;;;;;37.17;16.83;;;;;;;;;;6244086;28;20045;-53
2023/10/10 08:54:11;;;;;;;48.58;19.50;;;;;;;;;;6244093;28;20144;-55
2023/10/10 08:57:12;;;;;;;49.47;21.45;;;;;;;;;;6243598;28;20493;-54
2023/10/10 09:00:17;;;;;;;37.08;16.77;;;;;;;;;;6244006;28;20153;-55
2023/10/10 09:03:18;;;;;;;39.38;17.33;;;;;;;;;;6244187;28;20056;-54
2023/10/10 09:06:19;;;;;;;46.75;18.60;;;;;;;;;;6244208;28;20037;-55
2023/10/10 09:09:36;;;;;;;38.92;18.50;;;;;;;;;;6242141;28;20045;-55
2023/10/10 09:12:52;;;;;;;41.15;18.45;;;;;;;;;;6241727;28;20108;-54
2023/10/10 09:15:56;;;;;;;47.80;19.05;;;;;;;;;;6256607;28;20049;-55
2023/10/10 09:19:10;;;;;;;40.40;17.50;;;;;;;;;;6243445;28;20049;-52
2023/10/10 09:22:25;;;;;;;41.08;17.85;;;;;;;;;;6243716;28;20041;-53
2023/10/10 09:25:31;;;;;;;42.15;17.40;;;;;;;;;;6242367;28;20065;-55
2023/10/10 09:29:15;;;;;;;42.75;17.40;;;;;;;;;;6243693;28;20052;-53
2023/10/10 09:32:17;;;;;;;37.25;17.00;;;;;;;;;;6245332;28;20041;-51
2023/10/10 09:35:20;;;;;;;49.75;19.77;;;;;;;;;;6243565;28;20128;-54
2023/10/10 09:38:22;;;;;;;41.03;15.82;;;;;;;;;;6242158;28;20045;-54
2023/10/10 09:44:53;;;;;;;39.22;18.00;;;;;;;;;;6241032;28;20061;-54
2023/10/10 09:47:57;;;;;;;34.67;15.60;;;;;;;;;;6242112;28;20053;-53
2023/10/10 09:54:25;;;;;;;34.58;15.52;;;;;;;;;;6242125;28;20404;-55
2023/10/10 09:57:26;;;;;;;36.40;15.77;;;;;;;;;;6241875;28;20045;-54
2023/10/10 10:03:49;;;;;;;38.17;15.90;;;;;;;;;;6245287;28;20053;-55
2023/10/10 10:07:14;;;;;;;38.10;15.35;;;;;;;;;;6247894;28;20057;-55
2023/10/10 10:10:33;;;;;;;35.65;15.77;;;;;;;;;;6247732;28;20560;-55
2023/10/10 10:13:39;;;;;;;35.00;15.57;;;;;;;;;;6247321;28;20143;-54
2023/10/10 10:16:51;;;;;;;45.55;19.02;;;;;;;;;;6246535;28;20412;-55
2023/10/10 10:20:18;;;;;;;34.00;15.13;;;;;;;;;;6246032;28;20056;-54
2023/10/10 10:23:33;;;;;;;38.60;16.83;;;;;;;;;;6246914;28;20110;-55
2023/10/10 10:26:42;;;;;;;38.65;15.15;;;;;;;;;;6250227;28;20471;-54
2023/10/10 10:29:53;;;;;;;39.25;17.48;;;;;;;;;;6246666;28;20111;-54
2023/10/10 10:32:59;;;;;;;41.13;16.70;;;;;;;;;;6247951;28;20080;-53
2023/10/10 10:36:14;;;;;;;38.35;17.38;;;;;;;;;;6247100;28;20542;-56
2023/10/10 10:39:20;;;;;;;39.72;16.88;;;;;;;;;;6245282;28;20448;-51
2023/10/10 10:42:22;;;;;;;44.95;18.83;;;;;;;;;;6247708;28;20045;-52
2023/10/10 10:45:35;;;;;;;44.50;20.08;;;;;;;;;;6246013;28;20053;-54
2023/10/10 10:48:36;;;;;;;49.05;22.98;;;;;;;;;;6247518;28;20050;-51
2023/10/10 10:51:42;;;;;;;42.45;17.38;;;;;;;;;;6248801;28;20534;-54
2023/10/10 10:54:50;;;;;;;34.25;15.77;;;;;;;;;;6244021;28;20077;-54
2023/10/10 10:58:05;;;;;;;37.63;17.73;;;;;;;;;;6245514;28;20469;-55
2023/10/10 11:01:17;;;;;;;39.35;15.93;;;;;;;;;;6244718;28;20057;-52
2023/10/10 11:04:40;;;;;;;33.78;14.90;;;;;;;;;;6245996;28;20053;-54
2023/10/10 11:07:47;;;;;;;34.85;15.23;;;;;;;;;;6248819;28;20045;-55
2023/10/10 11:10:47;;;;;;;42.15;16.30;;;;;;;;;;6246379;28;20061;-55
2023/10/10 11:13:49;;;;;;;38.00;16.30;;;;;;;;;;6242067;28;20056;-54
2023/10/10 11:16:56;;;;;;;39.50;17.77;;;;;;;;;;6245943;28;20083;-53
2023/10/10 11:19:57;;;;;;;39.45;16.52;;;;;;;;;;6245169;28;20057;-54
2023/10/10 11:23:11;;;;;;;39.60;17.38;;;;;;;;;;6246593;28;20081;-55
2023/10/10 11:26:14;;;;;;;39.05;17.17;;;;;;;;;;6245549;28;20084;-53
2023/10/10 11:29:27;;;;;;;37.00;17.00;;;;;;;;;;6245062;28;20053;-53
2023/10/10 11:32:36;;;;;;;39.17;17.15;;;;;;;;;;6246119;28;20133;-51
2023/10/10 11:35:37;;;;;;;40.55;17.13;;;;;;;;;;6245407;28;20102;-54
2023/10/10 11:38:39;;;;;;;41.97;17.08;;;;;;;;;;6245383;28;20053;-54
2023/10/10 11:41:39;;;;;;;41.55;17.48;;;;;;;;;;6245750;28;20049;-54
2023/10/10 11:44:43;;;;;;;37.28;17.15;;;;;;;;;;6245289;28;20045;-54
2023/10/10 11:47:44;;;;;;;39.55;17.33;;;;;;;;;;6243047;28;20068;-52
2023/10/10 11:50:48;;;;;;;46.30;18.73;;;;;;;;;;6245201;28;20486;-55
2023/10/10 11:53:49;;;;;;;45.53;20.10;;;;;;;;;;6245188;28;20053;-52
2023/10/10 11:56:49;;;;;;;46.95;19.50;;;;;;;;;;6245279;28;20443;-55
2023/10/10 11:59:50;;;;;;;43.25;18.55;;;;;;;;;;6244205;28;20041;-55
2023/10/10 12:02:51;;;;;;;50.47;22.27;;;;;;;;;;6244965;28;20057;-54
2023/10/10 12:05:51;;;;;;;49.78;20.90;;;;;;;;;;6242766;28;20075;-56
2023/10/10 12:08:53;;;;;;;50.90;20.95;;;;;;;;;;6242204;28;20060;-55
2023/10/10 12:12:03;;;;;;;46.35;19.63;;;;;;;;;;6243945;28;20053;-55
2023/10/10 12:15:04;;;;;;;51.92;20.05;;;;;;;;;;6243542;28;20077;-55
2023/10/10 12:18:11;;;;;;;45.50;19.45;;;;;;;;;;6242490;28;20407;-57
2023/10/10 12:21:14;;;;;;;51.72;20.83;;;;;;;;;;6243647;28;20047;-55
2023/10/10 12:24:15;;;;;;;50.05;19.60;;;;;;;;;;6257817;28;20083;-55
2023/10/10 12:27:16;;;;;;;58.17;20.85;;;;;;;;;;6242534;28;20491;-55
2023/10/10 12:30:18;;;;;;;51.25;20.58;;;;;;;;;;6244350;28;20041;-55
2023/10/10 12:33:19;;;;;;;52.90;19.30;;;;;;;;;;6244612;28;20480;-55
2023/10/10 12:36:28;;;;;;;50.50;19.63;;;;;;;;;;6242044;28;20037;-54
2023/10/10 12:39:29;;;;;;;54.95;22.23;;;;;;;;;;6245425;28;20049;-54
2023/10/10 12:42:29;;;;;;;87.30;40.75;;;;;;;;;;6244476;28;20396;-53
2023/10/10 12:45:32;;;;;;;64.70;24.27;;;;;;;;;;6243962;28;20068;-53
2023/10/10 12:48:39;;;;;;;57.08;21.13;;;;;;;;;;6244365;28;20052;-55
2023/10/10 12:51:44;;;;;;;61.65;27.40;;;;;;;;;;6245211;28;20069;-53
2023/10/10 12:54:46;;;;;;;56.25;22.35;;;;;;;;;;6244230;28;20049;-54
2023/10/10 12:57:48;;;;;;;;;;;;;;;;;;6242869;28;20046;-53
2023/10/10 13:00:50;;;;;;;61.30;26.77;;;;;;;;;;6240510;28;19928;-55
2023/10/10 13:03:51;;;;;;;202.80;60.70;;;;;;;;;;6243177;28;20619;-54
2023/10/10 13:06:52;;;;;;;416.88;107.47;;;;;;;;;;6243509;28;20060;-52
2023/10/10 13:09:55;;;;;;;503.13;146.10;;;;;;;;;;6239781;28;20467;-55
2023/10/10 13:12:56;;;;;;;516.50;163.88;;;;;;;;;;6242366;28;20041;-55
2023/10/10 13:16:07;;;;;;;177.27;73.90;;;;;;;;;;6243829;28;20164;-55
2023/10/10 13:19:12;;;;;;;74.18;29.33;;;;;;;;;;6242373;28;20669;-54
2023/10/10 13:22:20;;;;;;;53.13;21.73;;;;;;;;;;6243539;28;20055;-57
2023/10/10 13:25:21;;;;;;;53.40;21.70;;;;;;;;;;6243421;28;20040;-55
2023/10/10 13:28:22;;;;;;;55.92;22.35;;;;;;;;;;6241354;28;20053;-53
2023/10/10 13:31:24;;;;;;;46.35;19.38;;;;;;;;;;6242122;28;20422;-54
2023/10/10 13:34:24;;;;;;;55.90;22.48;;;;;;;;;;6242167;28;20045;-54
2023/10/10 13:37:25;;;;;;;61.20;27.20;;;;;;;;;;6242425;28;20055;-53
2023/10/10 13:40:25;;;;;;;67.55;30.58;;;;;;;;;;6241018;28;20049;-54
2023/10/10 13:43:26;;;;;;;107.55;51.67;;;;;;;;;;6243272;28;20137;-52
2023/10/10 13:46:27;;;;;;;92.07;43.55;;;;;;;;;;6242679;28;20045;-55
2023/10/10 13:49:27;;;;;;;59.05;25.17;;;;;;;;;;6242311;28;20054;-55
2023/10/10 13:52:31;;;;;;;123.28;53.60;;;;;;;;;;6241395;28;20114;-52
2023/10/10 13:55:34;;;;;;;64.97;26.85;;;;;;;;;;6242724;28;20046;-57
2023/10/10 13:58:36;;;;;;;69.55;28.80;;;;;;;;;;6242313;28;20492;-55
2023/10/10 14:01:39;;;;;;;64.18;26.33;;;;;;;;;;6251930;28;20045;-55
2023/10/10 14:04:48;;;;;;;66.15;27.67;;;;;;;;;;6245792;28;20049;-51
2023/10/10 14:07:48;;;;;;;97.15;41.97;;;;;;;;;;6271596;28;20041;-56
2023/10/10 14:10:50;;;;;;;72.03;32.17;;;;;;;;;;6262956;28;20178;-54
2023/10/10 14:13:53;;;;;;;65.13;26.85;;;;;;;;;;6260089;28;20412;-55
2023/10/10 14:16:54;;;;;;;62.58;26.08;;;;;;;;;;6262997;28;20045;-57
2023/10/10 14:19:54;;;;;;;61.80;25.95;;;;;;;;;;6261128;28;20111;-55
2023/10/10 14:22:55;;;;;;;63.65;26.98;;;;;;;;;;6261831;28;20048;-54
2023/10/10 14:26:14;;;;;;;62.28;25.88;;;;;;;;;;6264928;28;20045;-56
2023/10/10 14:29:15;;;;;;;59.28;26.10;;;;;;;;;;6260745;28;20070;-54
2023/10/10 14:32:15;;;;;;;62.53;26.23;;;;;;;;;;6261036;28;20037;-52
2023/10/10 14:35:16;;;;;;;67.10;26.55;;;;;;;;;;6258874;28;20047;-62
2023/10/10 14:38:17;;;;;;;63.97;26.70;;;;;;;;;;6262824;28;20125;-55
2023/10/10 14:41:20;;;;;;;63.78;27.65;;;;;;;;;;6264711;28;20037;-54
2023/10/10 14:44:21;;;;;;;59.50;26.23;;;;;;;;;;6264697;28;20499;-54
2023/10/10 14:47:23;;;;;;;63.33;27.40;;;;;;;;;;6265580;28;20045;-55
2023/10/10 14:50:24;;;;;;;60.13;26.45;;;;;;;;;;6265927;28;20090;-55
2023/10/10 14:53:25;;;;;;;64.28;28.65;;;;;;;;;;6267413;28;20446;-55
2023/10/10 14:56:34;;;;;;;63.05;27.92;;;;;;;;;;6270389;28;20514;-53
2023/10/10 14:59:35;;;;;;;69.97;30.17;;;;;;;;;;6268080;28;20063;-56
2023/10/10 15:02:36;;;;;;;65.68;26.13;;;;;;;;;;6268926;28;20045;-51
2023/10/10 15:05:46;;;;;;;68.55;27.35;;;;;;;;;;6267146;28;20049;-55
2023/10/10 15:08:47;;;;;;;81.78;34.25;;;;;;;;;;6268035;28;20344;-56
2023/10/10 15:11:47;;;;;;;84.75;32.92;;;;;;;;;;6269133;28;20083;-53
2023/10/10 15:14:48;;;;;;;82.53;29.77;;;;;;;;;;6267964;28;20052;-52
2023/10/10 15:17:49;;;;;;;73.00;28.38;;;;;;;;;;6269944;28;20056;-55
2023/10/10 15:20:50;;;;;;;72.65;27.58;;;;;;;;;;6269420;28;20064;-54
2023/10/10 15:23:52;;;;;;;71.97;28.60;;;;;;;;;;6268386;28;20139;-50
2023/10/10 15:26:55;;;;;;;75.78;30.20;;;;;;;;;;6269021;28;20053;-58
2023/10/10 15:29:56;;;;;;;85.40;30.80;;;;;;;;;;6255468;28;20171;-54
2023/10/10 15:33:01;;;;;;;90.28;33.75;;;;;;;;;;6258990;28;20037;-57
2023/10/10 15:36:06;;;;;;;91.47;33.28;;;;;;;;;;6256949;28;20111;-55
2023/10/10 15:39:09;;;;;;;80.05;30.77;;;;;;;;;;6257872;28;20053;-57
2023/10/10 15:42:13;;;;;;;77.68;30.08;;;;;;;;;;6256142;28;20246;-52
2023/10/10 15:45:20;;;;;;;67.72;27.20;;;;;;;;;;6257557;28;20044;-54
2023/10/10 15:48:24;;;;;;;72.38;29.17;;;;;;;;;;6257568;28;20041;-64
2023/10/10 15:51:25;;;;;;;68.22;27.88;;;;;;;;;;6257091;28;20048;-63
2023/10/10 15:54:29;;;;;;;65.78;27.02;;;;;;;;;;6255453;28;20050;-63
2023/10/10 15:57:29;;;;;;;60.40;26.40;;;;;;;;;;6258486;28;20048;-62
2023/10/10 16:00:33;;;;;;;71.03;28.88;;;;;;;;;;6253425;28;20480;-64
2023/10/10 16:03:33;;;;;;;81.30;31.23;;;;;;;;;;6255301;28;20060;-60
2023/10/10 16:06:35;;;;;;;76.00;30.88;;;;;;;;;;6257832;28;20114;-63
2023/10/10 16:09:36;;;;;;;77.25;29.55;;;;;;;;;;6256593;28;20049;-63
2023/10/10 16:12:36;;;;;;;77.95;32.05;;;;;;;;;;6256466;28;20095;-65
2023/10/10 16:15:37;;;;;;;71.47;30.80;;;;;;;;;;6256209;28;20051;-62
2023/10/10 16:18:38;;;;;;;75.32;30.02;;;;;;;;;;6256768;28;20268;-56
2023/10/10 16:21:39;;;;;;;66.50;28.20;;;;;;;;;;6258017;28;20492;-59
2023/10/10 16:24:40;;;;;;;;;;;;;;;;;;6257589;28;20048;-63
2023/10/10 16:27:41;;;;;;;77.65;29.42;;;;;;;;;;6257125;28;20501;-62
2023/10/10 16:30:41;;;;;;;72.65;29.00;;;;;;;;;;6255839;28;20125;-60
2023/10/10 16:33:42;;;;;;;69.72;28.85;;;;;;;;;;6255951;28;20103;-59
2023/10/10 16:36:46;;;;;;;79.15;30.67;;;;;;;;;;6256963;28;20052;-55
2023/10/10 16:39:47;;;;;;;99.47;36.25;;;;;;;;;;6255938;28;20173;-59
2023/10/10 16:42:48;;;;;;;113.50;41.63;;;;;;;;;;6258440;28;20087;-55
2023/10/10 16:45:49;;;;;;;105.78;39.33;;;;;;;;;;6255409;28;20045;-56
2023/10/10 16:48:50;;;;;;;101.05;40.13;;;;;;;;;;6253706;28;20053;-56
2023/10/10 16:51:54;;;;;;;94.43;40.67;;;;;;;;;;6255894;28;20059;-55
2023/10/10 16:54:56;;;;;;;97.70;42.30;;;;;;;;;;6256681;28;20037;-55
2023/10/10 16:57:57;;;;;;;105.13;42.58;;;;;;;;;;6256997;28;20045;-59
2023/10/10 17:01:03;;;;;;;98.32;40.97;;;;;;;;;;6255826;28;20557;-57
2023/10/10 17:04:04;;;;;;;98.93;38.95;;;;;;;;;;6256546;28;20067;-58
2023/10/10 17:07:05;;;;;;;97.88;40.20;;;;;;;;;;6256409;28;20084;-54
2023/10/10 17:10:13;;;;;;;104.57;43.50;;;;;;;;;;6255769;28;20495;-55
2023/10/10 17:13:15;;;;;;;105.28;43.30;;;;;;;;;;6257177;28;20048;-60
2023/10/10 17:16:25;;;;;;;102.95;41.00;;;;;;;;;;6256542;28;20136;-55
2023/10/10 17:19:27;;;;;;;99.80;42.33;;;;;;;;;;6254530;28;20547;-55
2023/10/10 17:22:27;;;;;;;109.47;47.00;;;;;;;;;;6255253;28;20041;-55
2023/10/10 17:25:29;;;;;;;113.93;46.15;;;;;;;;;;6256983;28;20604;-63
2023/10/10 17:28:32;;;;;;;117.53;46.08;;;;;;;;;;6249773;28;20049;-60
2023/10/10 17:31:33;;;;;;;110.43;46.22;;;;;;;;;;6251181;28;20051;-54
2023/10/10 17:34:33;;;;;;;110.10;46.13;;;;;;;;;;6253879;28;20512;-53
2023/10/10 17:37:34;;;;;;;113.78;46.80;;;;;;;;;;6253881;28;20045;-55
2023/10/10 17:40:39;;;;;;;115.38;46.15;;;;;;;;;;6252800;28;20056;-55
2023/10/10 17:43:43;;;;;;;113.07;45.05;;;;;;;;;;6255183;28;20424;-56
2023/10/10 17:46:45;;;;;;;99.68;40.35;;;;;;;;;;6251580;28;20127;-56
2023/10/10 17:49:47;;;;;;;94.35;40.90;;;;;;;;;;6252384;28;20084;-54
2023/10/10 17:52:47;;;;;;;89.70;37.85;;;;;;;;;;6253767;28;20055;-54
2023/10/10 17:55:54;;;;;;;96.35;40.45;;;;;;;;;;6251580;28;20092;-54
2023/10/10 17:58:55;;;;;;;91.05;39.35;;;;;;;;;;6250688;28;20614;-53
2023/10/10 18:01:55;;;;;;;94.95;38.72;;;;;;;;;;6254119;28;20064;-53
2023/10/10 18:04:56;;;;;;;91.10;39.53;;;;;;;;;;6255630;28;20389;-62
2023/10/10 18:07:58;;;;;;;86.15;38.35;;;;;;;;;;6255919;28;20514;-54
2023/10/10 18:11:05;;;;;;;;;;;;;;;;;;6255366;28;20041;-52
2023/10/10 18:14:07;;;;;;;100.13;39.33;;;;;;;;;;6254223;28;20549;-53
2023/10/10 18:17:10;;;;;;;103.90;44.20;;;;;;;;;;6253792;28;20057;-55
2023/10/10 18:20:16;;;;;;;125.38;52.13;;;;;;;;;;6252990;28;20139;-57
2023/10/10 18:23:17;;;;;;;118.03;51.78;;;;;;;;;;6255153;28;20041;-56
2023/10/10 18:26:22;;;;;;;112.30;45.63;;;;;;;;;;6259627;28;20053;-56
2023/10/10 18:29:22;;;;;;;112.40;44.38;;;;;;;;;;6258335;28;20053;-61
2023/10/10 18:32:23;;;;;;;114.03;46.35;;;;;;;;;;6259551;28;20613;-62
2023/10/10 18:35:26;;;;;;;122.00;46.55;;;;;;;;;;6260284;28;20427;-55
2023/10/10 18:38:27;;;;;;;117.32;46.78;;;;;;;;;;6258742;28;20048;-56
2023/10/10 18:41:29;;;;;;;108.53;41.88;;;;;;;;;;6258274;28;20455;-55
2023/10/10 18:44:30;;;;;;;134.32;52.25;;;;;;;;;;6258984;28;20578;-55
2023/10/10 18:47:31;;;;;;;183.15;76.85;;;;;;;;;;6274564;28;20140;-54
2023/10/10 18:50:35;;;;;;;188.45;76.40;;;;;;;;;;6256775;28;20053;-57
2023/10/10 18:53:36;;;;;;;196.50;59.03;;;;;;;;;;6256857;28;20053;-61
2023/10/10 18:56:37;;;;;;;112.80;43.28;;;;;;;;;;6256321;28;20147;-62
2023/10/10 18:59:39;;;;;;;130.65;50.63;;;;;;;;;;6254555;28;20060;-59
2023/10/10 19:02:42;;;;;;;118.70;45.85;;;;;;;;;;6258063;28;20059;-60
2023/10/10 19:05:42;;;;;;;134.95;48.22;;;;;;;;;;6254727;28;20136;-60
2023/10/10 19:08:44;;;;;;;164.35;52.35;;;;;;;;;;6254070;28;20457;-59
2023/10/10 19:11:44;;;;;;;125.47;51.17;;;;;;;;;;6258296;28;20514;-62
2023/10/10 19:14:45;;;;;;;124.82;50.40;;;;;;;;;;6273852;28;20049;-63
2023/10/10 19:17:49;;;;;;;139.48;51.90;;;;;;;;;;6259434;28;20064;-62
2023/10/10 19:20:49;;;;;;;154.15;47.50;;;;;;;;;;6257640;28;20492;-58
2023/10/10 19:23:52;;;;;;;114.53;48.28;;;;;;;;;;6258995;28;20134;-53
2023/10/10 19:26:53;;;;;;;116.80;48.00;;;;;;;;;;6257924;28;20075;-58
2023/10/10 19:29:53;;;;;;;155.85;51.80;;;;;;;;;;6255931;28;20049;-53
2023/10/10 19:32:54;;;;;;;120.95;50.15;;;;;;;;;;6253458;28;20134;-55
2023/10/10 19:35:55;;;;;;;114.05;49.38;;;;;;;;;;6253902;28;20056;-54
2023/10/10 19:38:56;;;;;;;119.35;49.75;;;;;;;;;;6251562;28;20126;-54
2023/10/10 19:41:57;;;;;;;109.50;48.13;;;;;;;;;;6254740;28;20049;-55
2023/10/10 19:44:58;;;;;;;107.85;44.97;;;;;;;;;;6252688;28;20531;-56
2023/10/10 19:48:05;;;;;;;96.88;43.38;;;;;;;;;;6260021;28;20136;-56
2023/10/10 19:51:13;;;;;;;106.57;45.95;;;;;;;;;;6261137;28;20492;-56
2023/10/10 19:54:13;;;;;;;96.93;43.97;;;;;;;;;;6258195;28;20420;-54
2023/10/10 19:57:15;;;;;;;146.93;54.22;;;;;;;;;;6264685;28;20041;-52
2023/10/10 20:00:21;;;;;;;180.95;63.33;;;;;;;;;;6261252;28;20412;-52
2023/10/10 20:03:27;;;;;;;103.15;44.22;;;;;;;;;;6266164;28;20061;-56
2023/10/10 20:06:30;;;;;;;92.97;40.90;;;;;;;;;;6264092;28;20049;-54
2023/10/10 20:09:35;;;;;;;101.60;43.60;;;;;;;;;;6265039;28;20461;-57